Time;durP1;ratioP1;P1;durP2;ratioP2;P2;SDS_P1;SDS_P2;PMS_P1;PMS_P2;Temp;Humidity;BMP_temperature;BMP_pressure;BME280_temperature;BME280_humidity;BME280_pressure;Samples;Min_cycle;Max_cycle;Signal;HPM_P1;HPM_P2
2021/11/14 00:01:44;;;;;;;87.33;44.98;;;;;;;1.63;88.61;100604.38;1807473;79;25775;-67
2021/11/14 00:04:13;;;;;;;86.53;44.95;;;;;;;1.60;88.70;100601.69;1806892;79;25580;-68
2021/11/14 00:06:43;;;;;;;95.05;46.37;;;;;;;1.56;88.59;100600.54;1807081;79;27369;-68
2021/11/14 00:09:12;;;;;;;98.60;47.55;;;;;;;1.52;88.57;100600.75;1804283;79;26333;-68
2021/11/14 00:11:38;;;;;;;113.62;50.95;;;;;;;1.49;88.74;100599.36;1801644;79;25761;-68
2021/11/14 00:14:06;;;;;;;108.45;50.23;;;;;;;1.44;88.92;100593.14;1801586;79;25630;-68
2021/11/14 00:16:32;;;;;;;139.18;51.42;;;;;;;1.42;89.11;100593.37;1801815;79;25564;-67
2021/11/14 00:19:00;;;;;;;120.87;48.95;;;;;;;1.42;89.34;100600.05;1801328;79;27333;-68
2021/11/14 00:21:29;;;;;;;102.60;48.65;;;;;;;1.43;89.58;100595.52;1801613;79;25761;-68
2021/11/14 00:23:57;;;;;;;102.50;50.05;;;;;;;1.44;89.73;100600.61;1801772;79;34728;-68
2021/11/14 00:26:24;;;;;;;103.32;49.15;;;;;;;1.47;89.83;100605.46;1801405;79;25572;-68
2021/11/14 00:28:51;;;;;;;109.80;49.18;;;;;;;1.51;90.13;100611.12;1801713;79;25402;-69
2021/11/14 00:31:20;;;;;;;107.85;49.95;;;;;;;1.54;90.37;100613.31;1801658;79;27333;-69
2021/11/14 00:33:50;;;;;;;109.50;52.43;;;;;;;1.58;90.57;100617.63;1801500;79;33170;-69
2021/11/14 00:36:21;;;;;;;108.12;50.73;;;;;;;1.62;90.73;100616.92;1801788;79;25742;-69
2021/11/14 00:38:50;;;;;;;109.80;49.25;;;;;;;1.65;90.83;100619.11;1779178;79;25691;-69
2021/11/14 00:41:17;;;;;;;106.80;49.20;;;;;;;1.70;90.89;100618.36;1801706;79;25836;-68
2021/11/14 00:43:44;;;;;;;101.85;50.15;;;;;;;1.75;91.05;100625.11;1801686;79;27532;-69
2021/11/14 00:46:11;;;;;;;108.52;50.65;;;;;;;1.79;91.20;100620.93;1801720;79;25615;-69
2021/11/14 00:48:42;;;;;;;103.58;52.27;;;;;;;1.87;91.38;100621.03;1801512;79;25646;-67
2021/11/14 00:51:13;;;;;;;101.42;49.88;;;;;;;1.92;91.50;100626.45;1801720;79;26508;-68
2021/11/14 00:53:40;;;;;;;102.78;49.27;;;;;;;1.98;91.58;100628.70;1801768;79;26148;-68
2021/11/14 00:56:07;;;;;;;108.85;52.50;;;;;;;2.03;91.69;100623.44;1801334;79;27313;-68
2021/11/14 00:58:34;;;;;;;100.47;50.12;;;;;;;2.08;91.81;100614.17;1801583;79;26022;-69
2021/11/14 01:01:02;;;;;;;108.37;51.37;;;;;;;2.12;91.81;100612.62;1801562;79;25469;-68
2021/11/14 01:03:29;;;;;;;105.37;51.70;;;;;;;2.20;91.85;100618.08;1801335;79;26209;-68
2021/11/14 01:05:55;;;;;;;104.78;51.85;;;;;;;2.25;91.88;100616.82;1801616;79;25431;-68
2021/11/14 01:08:22;;;;;;;103.50;50.33;;;;;;;2.30;91.92;100614.73;1803716;79;28258;-68
2021/11/14 01:10:51;;;;;;;103.65;53.20;;;;;;;2.35;91.93;100619.63;1806769;79;25603;-68
2021/11/14 01:13:19;;;;;;;99.07;51.68;;;;;;;2.39;91.84;100623.41;1806952;79;25615;-69
2021/11/14 01:15:48;;;;;;;102.38;52.60;;;;;;;2.43;91.90;100622.39;1806946;79;25741;-69
2021/11/14 01:18:17;;;;;;;96.37;48.50;;;;;;;2.48;91.94;100621.66;1806834;79;25417;-69
2021/11/14 01:20:47;;;;;;;106.83;49.50;;;;;;;2.53;91.93;100625.73;1807157;79;28119;-68
2021/11/14 01:23:16;;;;;;;106.22;49.85;;;;;;;2.57;91.84;100629.52;1807008;79;25591;-69
2021/11/14 01:25:44;;;;;;;115.25;52.40;;;;;;;2.60;91.86;100624.48;1807004;79;25651;-67
2021/11/14 01:28:11;;;;;;;106.72;50.28;;;;;;;2.65;91.85;100624.28;1806917;79;25672;-68
2021/11/14 01:30:42;;;;;;;111.10;52.08;;;;;;;2.68;91.87;100625.93;1807088;79;25410;-68
2021/11/14 01:33:11;;;;;;;117.13;52.62;;;;;;;2.71;91.71;100621.97;1806892;79;26636;-68
2021/11/14 01:35:38;;;;;;;106.20;52.20;;;;;;;2.74;91.82;100626.80;1806885;79;25697;-68
2021/11/14 01:38:07;;;;;;;118.28;57.73;;;;;;;2.78;91.85;100627.39;1806952;79;25562;-68
2021/11/14 01:40:48;;;;;;;117.47;58.52;;;;;;;2.82;91.84;100623.69;1806856;79;26270;-68
2021/11/14 01:43:19;;;;;;;131.03;64.47;;;;;;;2.86;91.88;100635.52;1807041;79;25545;-68
2021/11/14 01:45:46;;;;;;;133.40;65.47;;;;;;;2.89;91.94;100630.19;1807090;79;27333;-68
2021/11/14 01:48:13;;;;;;;133.60;65.22;;;;;;;2.93;91.93;100631.32;1806837;79;25955;-68
2021/11/14 01:50:41;;;;;;;144.37;66.10;;;;;;;2.95;91.96;100630.00;1807104;79;25489;-68
2021/11/14 01:53:09;;;;;;;149.38;66.37;;;;;;;2.99;91.93;100633.77;1806918;79;25709;-66
2021/11/14 01:55:44;;;;;;;122.55;57.67;;;;;;;3.03;91.92;100632.77;1806791;79;25365;-67
2021/11/14 01:58:17;;;;;;;122.30;58.10;;;;;;;3.06;91.90;100634.13;1806982;79;27399;-68
2021/11/14 02:00:49;;;;;;;111.32;54.10;;;;;;;3.09;91.92;100633.63;1806655;79;25488;-68
2021/11/14 02:03:17;;;;;;;109.45;50.28;;;;;;;3.10;91.87;100637.39;1806862;79;25603;-66
2021/11/14 02:05:44;;;;;;;109.80;51.37;;;;;;;3.14;91.85;100637.69;1806882;79;25619;-66
2021/11/14 02:08:12;;;;;;;116.62;51.68;;;;;;;3.15;91.79;100635.28;1807226;79;25550;-67
2021/11/14 02:10:41;;;;;;;115.52;54.65;;;;;;;3.16;91.77;100640.37;1812633;78;28096;-67
2021/11/14 02:13:09;;;;;;;113.32;53.90;;;;;;;3.19;91.86;100644.43;1808809;79;25476;-67
2021/11/14 02:15:37;;;;;;;115.85;54.05;;;;;;;3.22;91.97;100639.92;1801658;79;25548;-67
2021/11/14 02:18:07;;;;;;;112.80;54.38;;;;;;;3.25;91.95;100641.27;1801802;79;26204;-67
2021/11/14 02:20:35;;;;;;;120.60;55.58;;;;;;;3.27;92.05;100644.50;1801988;79;25618;-67
2021/11/14 02:23:05;;;;;;;121.45;56.23;;;;;;;3.30;91.99;100648.84;1801665;79;27319;-67
2021/11/14 02:25:30;;;;;;;135.12;57.75;;;;;;;3.32;92.03;100647.22;1801759;79;25542;-68
2021/11/14 02:27:57;;;;;;;126.78;58.00;;;;;;;3.35;92.08;100652.08;1801889;79;25381;-68
2021/11/14 02:30:24;;;;;;;131.50;57.00;;;;;;;3.39;92.10;100650.53;1801649;79;25765;-68
2021/11/14 02:32:53;;;;;;;125.85;56.40;;;;;;;3.41;92.11;100656.97;1802022;79;25391;-68
2021/11/14 02:35:21;;;;;;;127.90;57.03;;;;;;;3.43;92.14;100659.65;1801978;79;27898;-68
2021/11/14 02:37:48;;;;;;;131.80;56.10;;;;;;;3.46;92.15;100657.81;1801496;79;25920;-68
2021/11/14 02:40:16;;;;;;;132.20;58.28;;;;;;;3.49;92.17;100657.31;1801859;79;25562;-68
2021/11/14 02:42:46;;;;;;;129.95;56.58;;;;;;;3.52;92.16;100655.98;1801804;79;26199;-68
2021/11/14 02:45:16;;;;;;;123.67;56.95;;;;;;;3.55;92.16;100654.15;1801624;79;25442;-68
2021/11/14 02:47:44;;;;;;;131.50;56.98;;;;;;;3.58;92.11;100656.86;1801916;79;27309;-68
2021/11/14 02:50:11;;;;;;;128.10;57.60;;;;;;;3.60;92.00;100662.22;1801852;79;25604;-68
2021/11/14 02:52:39;;;;;;;131.15;57.93;;;;;;;3.60;91.98;100655.53;1801827;79;25571;-68
2021/11/14 02:55:10;;;;;;;122.98;55.78;;;;;;;3.61;91.97;100665.19;1801946;79;26285;-68
2021/11/14 02:57:38;;;;;;;126.53;57.65;;;;;;;3.64;92.04;100670.55;1781715;79;25716;-69
2021/11/14 03:00:13;;;;;;;120.87;54.85;;;;;;;3.65;92.07;100668.95;1801714;79;28102;-69
2021/11/14 03:02:40;;;;;;;118.75;57.50;;;;;;;3.67;92.06;100670.05;1801902;79;25527;-67
2021/11/14 03:05:14;;;;;;;120.00;54.70;;;;;;;3.68;92.06;100667.66;1801988;79;25635;-69
2021/11/14 03:07:42;;;;;;;121.57;57.53;;;;;;;3.69;92.02;100674.61;1801925;79;26487;-70
2021/11/14 03:10:12;;;;;;;136.15;59.48;;;;;;;3.69;92.01;100676.74;1806904;79;26171;-68
2021/11/14 03:12:39;;;;;;;129.07;57.70;;;;;;;3.70;92.01;100677.03;1812581;79;28281;-67
2021/11/14 03:15:07;;;;;;;133.07;58.08;;;;;;;3.72;92.06;100681.59;1812174;79;25654;-67
2021/11/14 03:17:34;;;;;;;121.97;56.73;;;;;;;3.73;92.08;100683.22;1812508;79;25547;-67
2021/11/14 03:20:00;;;;;;;135.82;61.70;;;;;;;3.76;92.09;100682.43;1812560;78;25617;-68
2021/11/14 03:22:27;;;;;;;159.85;73.12;;;;;;;3.77;92.13;100674.69;1812223;79;25632;-68
2021/11/14 03:24:53;;;;;;;180.25;83.35;;;;;;;3.79;92.17;100680.59;1812536;79;27437;-68
2021/11/14 03:27:26;;;;;;;189.67;91.55;;;;;;;3.80;92.15;100684.86;1812408;79;25788;-68
2021/11/14 03:29:52;;;;;;;156.65;75.22;;;;;;;3.81;92.13;100681.94;1812383;78;25721;-69
2021/11/14 03:32:19;;;;;;;141.97;66.33;;;;;;;3.81;92.01;100679.27;1812482;79;25684;-69
2021/11/14 03:34:45;;;;;;;132.35;61.65;;;;;;;3.81;92.01;100680.59;1812475;79;25560;-69
2021/11/14 03:37:16;;;;;;;138.75;64.17;;;;;;;3.83;92.00;100683.02;1812285;79;27323;-69
2021/11/14 03:39:44;;;;;;;126.38;58.45;;;;;;;3.82;92.00;100682.23;1812161;79;25613;-69
2021/11/14 03:42:11;;;;;;;119.87;56.10;;;;;;;3.83;91.89;100687.04;1812592;79;25411;-69
2021/11/14 03:44:38;;;;;;;122.82;55.20;;;;;;;3.81;91.77;100683.27;1812294;79;25595;-69
2021/11/14 03:47:06;;;;;;;126.12;59.38;;;;;;;3.80;91.74;100688.37;1812551;79;25562;-68
2021/11/14 03:49:33;;;;;;;121.87;59.38;;;;;;;3.81;91.83;100687.83;1812590;79;27356;-68
2021/11/14 03:52:00;;;;;;;130.90;59.42;;;;;;;3.81;91.89;100691.30;1812173;79;25542;-68
2021/11/14 03:54:27;;;;;;;124.12;58.70;;;;;;;3.81;91.88;100690.50;1812515;79;25437;-68
2021/11/14 03:56:53;;;;;;;121.57;56.48;;;;;;;3.80;91.86;100687.03;1812484;79;25721;-68
2021/11/14 03:59:20;;;;;;;131.27;60.45;;;;;;;3.81;91.86;100687.83;1812338;78;25681;-68
2021/11/14 04:01:46;;;;;;;126.15;58.58;;;;;;;3.81;91.91;100687.83;1780835;79;27399;-69
2021/11/14 04:04:13;;;;;;;116.50;55.23;;;;;;;3.81;91.98;100692.64;1812328;79;27162;-69
2021/11/14 04:06:39;;;;;;;128.57;57.50;;;;;;;3.82;91.96;100692.13;1812275;79;25764;-70
2021/11/14 04:09:06;;;;;;;120.47;56.63;;;;;;;3.81;91.96;100695.31;1809894;79;25765;-67
2021/11/14 04:11:32;;;;;;;128.18;58.87;;;;;;;3.80;91.86;100697.73;1801783;79;25375;-68
2021/11/14 04:13:59;;;;;;;118.35;57.00;;;;;;;3.80;91.91;100703.59;1801414;79;27303;-68
2021/11/14 04:16:26;;;;;;;127.20;58.70;;;;;;;3.81;91.95;100708.70;1801642;79;25473;-68
2021/11/14 04:18:53;;;;;;;113.25;57.30;;;;;;;3.81;92.00;100711.37;1801723;79;25453;-68
2021/11/14 04:21:19;;;;;;;139.75;60.03;;;;;;;3.84;91.96;100720.78;1801282;79;25637;-68
2021/11/14 04:23:46;;;;;;;128.87;59.48;;;;;;;3.82;91.92;100713.54;1801751;79;25383;-68
2021/11/14 04:26:12;;;;;;;122.42;57.50;;;;;;;3.81;92.00;100713.25;1801636;79;27474;-68
2021/11/14 04:28:40;;;;;;;123.62;56.10;;;;;;;3.83;92.13;100720.48;1801499;79;25442;-69
2021/11/14 04:31:06;;;;;;;124.18;58.52;;;;;;;3.84;92.22;100720.78;1801594;79;25684;-67
2021/11/14 04:33:33;;;;;;;125.18;58.52;;;;;;;3.87;92.29;100721.62;1801737;79;26355;-67
2021/11/14 04:35:59;;;;;;;125.15;56.98;;;;;;;3.87;92.31;100718.94;1801573;79;25658;-68
2021/11/14 04:38:26;;;;;;;121.95;59.53;;;;;;;3.89;92.23;100723.50;1801604;79;28234;-68
2021/11/14 04:40:53;;;;;;;132.20;59.88;;;;;;;3.91;92.21;100722.71;1778942;79;25684;-68
2021/11/14 04:43:20;;;;;;;125.22;58.05;;;;;;;3.92;92.18;100725.67;1801657;79;25548;-68
2021/11/14 04:45:49;;;;;;;133.27;58.55;;;;;;;3.93;92.22;100727.27;1801567;79;25620;-68
2021/11/14 04:48:18;;;;;;;133.63;60.17;;;;;;;3.94;92.25;100732.92;1801983;79;25624;-68
2021/11/14 04:50:45;;;;;;;130.15;57.25;;;;;;;3.95;92.30;100729.19;1801747;79;27427;-68
2021/11/14 04:53:12;;;;;;;134.63;60.83;;;;;;;3.97;92.30;100731.08;1801495;79;25615;-68
2021/11/14 04:55:40;;;;;;;129.57;59.55;;;;;;;3.99;92.39;100730.28;1801713;79;25677;-69
2021/11/14 04:58:08;;;;;;;129.60;58.48;;;;;;;4.00;92.34;100737.77;1801610;79;25608;-68
2021/11/14 05:00:45;;;;;;;130.93;58.25;;;;;;;4.00;92.31;100745.30;1801624;79;25829;-68
2021/11/14 05:03:14;;;;;;;132.32;59.18;;;;;;;4.00;92.31;100741.28;1801477;79;28023;-68
2021/11/14 05:05:41;;;;;;;135.77;61.10;;;;;;;4.00;92.37;100744.47;1801616;79;25601;-68
2021/11/14 05:08:10;;;;;;;137.07;62.38;;;;;;;4.02;92.47;100745.02;1801637;79;25587;-68
2021/11/14 05:10:38;;;;;;;127.07;60.35;;;;;;;4.03;92.50;100756.81;1809878;78;25761;-68
2021/11/14 05:13:06;;;;;;;128.80;58.35;;;;;;;4.04;92.48;100751.75;1801783;79;25678;-68
2021/11/14 05:15:33;;;;;;;126.27;57.25;;;;;;;4.06;92.49;100759.52;1801933;79;27308;-68
2021/11/14 05:18:01;;;;;;;136.80;61.33;;;;;;;4.09;92.48;100764.38;1801799;79;25653;-68
2021/11/14 05:20:28;;;;;;;116.62;55.98;;;;;;;4.08;92.39;100762.75;1801747;79;25561;-68
2021/11/14 05:22:54;;;;;;;130.25;56.80;;;;;;;4.09;92.37;100765.17;1801952;79;25746;-68
2021/11/14 05:25:21;;;;;;;125.55;56.13;;;;;;;4.09;92.32;100769.73;1801935;79;25702;-68
2021/11/14 05:27:48;;;;;;;130.30;57.25;;;;;;;4.09;92.39;100769.73;1801976;79;28172;-68
2021/11/14 05:30:14;;;;;;;122.75;56.40;;;;;;;4.09;92.41;100769.73;1801787;79;25581;-68
2021/11/14 05:32:41;;;;;;;129.87;58.58;;;;;;;4.11;92.47;100774.30;1801948;79;25673;-67
2021/11/14 05:35:08;;;;;;;123.13;55.67;;;;;;;4.11;92.48;100772.95;1801837;79;25755;-67
2021/11/14 05:37:35;;;;;;;136.37;57.10;;;;;;;4.13;92.52;100782.87;1801938;79;25474;-68
2021/11/14 05:40:04;;;;;;;131.60;55.48;;;;;;;4.15;92.56;100781.29;1801892;79;27388;-68
2021/11/14 05:42:30;;;;;;;141.75;58.42;;;;;;;4.16;92.54;100790.41;1802118;79;25740;-68
2021/11/14 05:44:58;;;;;;;130.25;54.58;;;;;;;4.16;92.40;100793.09;1801654;79;25707;-68
2021/11/14 05:47:27;;;;;;;121.75;55.03;;;;;;;4.17;92.41;100787.19;1801932;79;25673;-68
2021/11/14 05:49:53;;;;;;;133.97;56.65;;;;;;;4.17;92.37;100793.89;1801981;79;25667;-68
2021/11/14 05:52:20;;;;;;;124.27;55.23;;;;;;;4.17;92.28;100792.55;1781030;79;27573;-68
2021/11/14 05:54:47;;;;;;;130.15;56.80;;;;;;;4.18;92.37;100800.33;1801913;79;25636;-67
2021/11/14 05:57:14;;;;;;;142.32;61.53;;;;;;;4.18;92.38;100798.19;1801879;79;25622;-67
2021/11/14 05:59:51;;;;;;;129.95;58.15;;;;;;;4.20;92.40;100805.44;1801687;79;26348;-67
2021/11/14 06:02:18;;;;;;;134.78;58.70;;;;;;;4.21;92.36;100803.84;1800470;79;25618;-68
2021/11/14 06:04:54;;;;;;;137.77;62.33;;;;;;;4.21;92.22;100804.38;1801111;79;28150;-68
2021/11/14 06:07:08;;;;;;;150.07;62.80;;;;;;;4.20;92.17;100804.09;1799569;79;25642;-67
2021/11/14 06:09:35;;;;;;;141.82;60.05;;;;;;;4.18;92.09;100807.02;1802555;79;25401;-68
2021/11/14 06:12:01;;;;;;;134.93;59.35;;;;;;;4.18;92.15;100803.55;1810204;79;25657;-68
2021/11/14 06:14:30;;;;;;;147.35;60.67;;;;;;;4.18;92.14;100815.05;1812120;79;25692;-68
2021/11/14 06:16:56;;;;;;;134.18;57.53;;;;;;;4.18;92.23;100825.77;1812460;79;27331;-68
2021/11/14 06:19:22;;;;;;;135.57;56.95;;;;;;;4.16;92.12;100825.76;1812181;79;27146;-68
2021/11/14 06:21:49;;;;;;;131.82;56.88;;;;;;;4.16;92.22;100828.44;1812154;79;25738;-68
2021/11/14 06:24:15;;;;;;;147.13;59.98;;;;;;;4.17;92.26;100834.05;1812381;79;25683;-68
2021/11/14 06:26:44;;;;;;;138.77;56.75;;;;;;;4.15;92.25;100831.62;1812616;79;25689;-68
2021/11/14 06:29:10;;;;;;;128.65;58.73;;;;;;;4.16;92.42;100832.45;1812616;79;27269;-67
2021/11/14 06:31:37;;;;;;;125.27;54.67;;;;;;;4.17;92.42;100838.89;1812568;78;25625;-69
2021/11/14 06:34:03;;;;;;;123.62;54.05;;;;;;;4.19;92.42;100842.12;1812683;79;26232;-70
2021/11/14 06:36:30;;;;;;;115.55;52.65;;;;;;;4.21;92.46;100842.67;1812417;79;27756;-67
2021/11/14 06:38:56;;;;;;;120.17;54.05;;;;;;;4.22;92.35;100846.16;1812732;78;25637;-69
2021/11/14 06:41:23;;;;;;;109.22;50.38;;;;;;;4.21;92.19;100851.25;1812639;79;27672;-68
2021/11/14 06:43:49;;;;;;;118.90;49.50;;;;;;;4.15;91.77;100852.24;1812359;79;27220;-67
2021/11/14 06:46:16;;;;;;;117.97;52.03;;;;;;;4.14;91.83;100852.78;1812623;79;25557;-68
2021/11/14 06:48:43;;;;;;;115.90;50.15;;;;;;;4.10;91.87;100856.50;1812563;79;25623;-68
2021/11/14 06:51:09;;;;;;;114.40;49.30;;;;;;;4.10;91.84;100857.00;1812398;79;25369;-67
2021/11/14 06:53:36;;;;;;;114.08;51.48;;;;;;;4.09;91.96;100859.42;1812685;79;27300;-67
2021/11/14 06:56:03;;;;;;;105.87;48.70;;;;;;;4.08;92.10;100851.90;1812507;79;25547;-67
2021/11/14 06:58:29;;;;;;;114.72;51.18;;;;;;;4.05;91.85;100861.80;1812493;78;25703;-67
2021/11/14 07:00:56;;;;;;;110.48;50.08;;;;;;;4.07;92.12;100865.53;1812610;79;25839;-67
2021/11/14 07:03:22;;;;;;;104.25;50.45;;;;;;;4.09;92.16;100867.45;1812654;79;25518;-67
2021/11/14 07:05:49;;;;;;;115.85;50.88;;;;;;;4.10;92.15;100875.75;1812360;79;27316;-68
2021/11/14 07:08:16;;;;;;;107.12;50.12;;;;;;;4.08;91.96;100882.69;1812472;79;25603;-68
2021/11/14 07:10:43;;;;;;;113.10;49.98;;;;;;;4.07;92.01;100882.94;1809894;78;25430;-66
2021/11/14 07:13:09;;;;;;;105.75;49.95;;;;;;;4.07;92.02;100889.62;1801773;79;25720;-66
2021/11/14 07:15:36;;;;;;;108.07;49.45;;;;;;;4.06;92.07;100888.83;1802233;79;25380;-68
2021/11/14 07:18:02;;;;;;;115.50;50.45;;;;;;;4.05;92.19;100892.58;1802099;79;27420;-69
2021/11/14 07:20:29;;;;;;;111.90;50.78;;;;;;;4.09;92.12;100894.23;1801818;79;27201;-68
2021/11/14 07:22:56;;;;;;;115.77;50.00;;;;;;;4.09;92.22;100897.70;1802188;79;25412;-67
2021/11/14 07:25:22;;;;;;;108.20;48.30;;;;;;;4.10;92.16;100905.20;1802029;79;25677;-68
2021/11/14 07:27:52;;;;;;;142.77;61.50;;;;;;;4.11;92.30;100905.48;1801915;79;25344;-68
2021/11/14 07:30:21;;;;;;;121.65;52.15;;;;;;;4.16;92.60;100914.12;1802112;79;27321;-69
2021/11/14 07:32:49;;;;;;;107.07;48.58;;;;;;;4.20;92.66;100909.86;1802274;79;34662;-68
2021/11/14 07:35:19;;;;;;;109.30;50.10;;;;;;;4.21;92.17;100908.81;1801974;79;25544;-67
2021/11/14 07:37:47;;;;;;;108.22;48.90;;;;;;;4.17;91.98;100911.70;1802107;79;26260;-68
2021/11/14 07:40:16;;;;;;;104.75;48.73;;;;;;;4.22;92.33;100915.27;1802023;79;25622;-67
2021/11/14 07:42:44;;;;;;;105.07;49.10;;;;;;;4.25;92.34;100921.97;1781662;79;27910;-67
2021/11/14 07:45:15;;;;;;;117.85;50.60;;;;;;;4.27;92.31;100919.84;1801900;79;25441;-68
2021/11/14 07:47:42;;;;;;;107.85;49.75;;;;;;;4.29;92.43;100920.40;1802081;79;25626;-68
2021/11/14 07:50:11;;;;;;;109.20;49.73;;;;;;;4.31;92.24;100918.30;1801736;79;25624;-68
2021/11/14 07:52:39;;;;;;;113.77;50.85;;;;;;;4.33;92.31;100917.52;1802256;79;25560;-67
2021/11/14 07:55:08;;;;;;;106.47;50.52;;;;;;;4.36;92.36;100918.86;1801901;79;27322;-67
2021/11/14 07:57:38;;;;;;;108.97;48.33;;;;;;;4.39;92.31;100923.72;1801848;79;25615;-68
2021/11/14 08:00:07;;;;;;;106.70;48.50;;;;;;;4.41;92.34;100931.80;1801914;79;25638;-68
2021/11/14 08:02:34;;;;;;;111.30;50.58;;;;;;;4.45;92.32;100932.10;1802099;79;26242;-68
2021/11/14 08:05:00;;;;;;;109.17;49.13;;;;;;;4.49;92.48;100939.39;1801712;79;25757;-68
2021/11/14 08:07:27;;;;;;;123.55;52.80;;;;;;;4.52;92.55;100940.74;1801945;79;27313;-68
2021/11/14 08:09:54;;;;;;;120.13;52.53;;;;;;;4.56;92.41;100941.05;1801829;79;25904;-67
2021/11/14 08:12:20;;;;;;;115.70;51.98;;;;;;;4.52;91.66;100940.74;1801718;79;25683;-68
2021/11/14 08:14:47;;;;;;;110.45;49.98;;;;;;;4.52;91.95;100939.95;1801803;79;25680;-67
2021/11/14 08:17:13;;;;;;;113.75;51.50;;;;;;;4.55;92.20;100950.16;1801989;79;25413;-67
2021/11/14 08:19:40;;;;;;;132.93;55.43;;;;;;;4.59;92.28;100952.06;1801967;79;27336;-68
2021/11/14 08:22:08;;;;;;;120.05;53.65;;;;;;;4.60;92.42;100945.66;1801899;79;25600;-69
2021/11/14 08:24:35;;;;;;;113.30;52.80;;;;;;;4.66;92.50;100951.32;1806800;78;25627;-67
2021/11/14 08:27:02;;;;;;;117.28;49.53;;;;;;;4.69;92.16;100952.70;1801319;79;27731;-69
2021/11/14 08:29:29;;;;;;;127.58;56.10;;;;;;;4.72;92.21;100958.91;1801910;79;25551;-68
2021/11/14 08:31:55;;;;;;;115.70;49.90;;;;;;;4.75;92.16;100960.25;1801958;79;27576;-68
2021/11/14 08:34:23;;;;;;;125.85;53.85;;;;;;;4.77;91.88;100964.85;1801666;79;25844;-68
2021/11/14 08:36:50;;;;;;;127.00;55.65;;;;;;;4.80;92.01;100967.83;1802223;79;25703;-68
2021/11/14 08:39:16;;;;;;;115.65;51.20;;;;;;;4.82;91.94;100969.72;1802597;79;26317;-68
2021/11/14 08:41:43;;;;;;;124.05;52.98;;;;;;;4.86;92.05;100970.02;1782029;79;25274;-68
2021/11/14 08:44:09;;;;;;;124.92;53.48;;;;;;;4.87;91.94;100974.33;1802468;79;27362;-68
2021/11/14 08:46:37;;;;;;;108.55;52.55;;;;;;;4.89;91.80;100978.91;1802631;79;25746;-68
2021/11/14 08:49:07;;;;;;;121.33;53.40;;;;;;;4.90;91.65;100987.20;1782161;79;25959;-68
2021/11/14 08:51:34;;;;;;;122.20;51.70;;;;;;;4.88;91.40;100986.66;1801964;79;25725;-68
2021/11/14 08:54:00;;;;;;;127.65;54.60;;;;;;;4.90;91.87;100986.40;1802024;79;25657;-68
2021/11/14 08:56:32;;;;;;;130.85;52.17;;;;;;;4.95;91.96;100993.16;1801719;79;27377;-68
2021/11/14 08:58:59;;;;;;;120.50;52.55;;;;;;;4.98;92.00;100994.79;1801918;79;25629;-69
2021/11/14 09:01:26;;;;;;;126.75;52.17;;;;;;;5.02;92.01;100992.41;1801923;79;25530;-69
2021/11/14 09:03:53;;;;;;;117.90;52.23;;;;;;;5.04;91.89;100998.34;1801786;79;25761;-68
2021/11/14 09:06:19;;;;;;;118.57;51.70;;;;;;;5.07;91.83;101005.06;1801686;79;25700;-68
2021/11/14 09:08:50;;;;;;;119.57;50.55;;;;;;;5.07;91.68;101001.04;1802565;78;29414;-68
2021/11/14 09:11:17;;;;;;;115.97;51.25;;;;;;;5.09;91.59;101002.42;1813694;78;25706;-68
2021/11/14 09:13:44;;;;;;;125.02;53.42;;;;;;;5.08;91.43;100999.45;1760987;81;25760;-68
2021/11/14 09:16:11;;;;;;;117.50;53.02;;;;;;;5.08;91.34;100995.96;1760633;81;25872;-69
2021/11/14 09:18:37;;;;;;;119.13;51.40;;;;;;;5.09;91.30;100999.73;1760550;81;25782;-67
2021/11/14 09:21:04;;;;;;;110.00;49.45;;;;;;;5.08;91.02;101001.33;1834425;77;27312;-68
2021/11/14 09:23:30;;;;;;;122.30;51.90;;;;;;;5.07;91.03;101004.52;1813577;78;25703;-67
2021/11/14 09:25:58;;;;;;;124.00;51.58;;;;;;;5.07;91.01;101009.08;1834072;78;25600;-67
2021/11/14 09:28:25;;;;;;;119.22;50.50;;;;;;;5.08;91.09;101013.39;1834470;78;25736;-68
2021/11/14 09:30:52;;;;;;;114.25;49.90;;;;;;;5.08;91.05;101013.39;1834550;77;25596;-68
2021/11/14 09:33:27;;;;;;;122.87;51.42;;;;;;;5.08;91.01;101011.52;1834087;78;26959;-67
2021/11/14 09:35:55;;;;;;;118.95;52.75;;;;;;;5.10;91.02;101017.42;1834401;78;25684;-68
2021/11/14 09:38:22;;;;;;;112.77;48.78;;;;;;;5.10;90.86;101013.41;1834478;78;25416;-67
2021/11/14 09:40:48;;;;;;;114.50;51.53;;;;;;;5.11;91.00;101018.22;1834178;78;25686;-67
2021/11/14 09:43:18;;;;;;;112.28;48.83;;;;;;;5.11;90.84;101014.20;1834211;78;25668;-67
2021/11/14 09:45:43;;;;;;;117.55;49.13;;;;;;;5.12;90.86;101012.61;1760662;81;27383;-65
2021/11/14 09:48:10;;;;;;;118.17;51.18;;;;;;;5.14;91.13;101017.21;1834164;78;25633;-65
2021/11/14 09:50:37;;;;;;;114.12;50.25;;;;;;;5.18;91.06;101025.02;1834359;78;25644;-65
2021/11/14 09:53:05;;;;;;;112.17;47.88;;;;;;;5.17;90.65;101025.27;1834222;78;27761;-67
2021/11/14 09:55:35;;;;;;;107.05;47.60;;;;;;;5.17;90.67;101027.41;1834164;78;25706;-67
2021/11/14 09:58:04;;;;;;;109.22;47.38;;;;;;;5.19;90.75;101031.17;1760669;81;29546;-68
2021/11/14 10:00:31;;;;;;;110.32;47.40;;;;;;;5.19;90.75;101030.66;1834120;78;25602;-66
2021/11/14 10:02:58;;;;;;;108.17;49.00;;;;;;;5.21;90.77;101031.22;1833823;78;25577;-67
2021/11/14 10:05:24;;;;;;;110.92;50.73;;;;;;;5.21;90.74;101032.55;1834261;78;25551;-67
2021/11/14 10:08:03;;;;;;;110.30;49.45;;;;;;;5.22;90.51;101034.16;1834362;77;26244;-67
2021/11/14 10:10:33;;;;;;;110.42;48.85;;;;;;;5.24;90.59;101033.91;1833946;78;27515;-67
2021/11/14 10:13:14;;;;;;;116.33;48.48;;;;;;;5.26;90.54;101034.99;1834254;78;25582;-67
2021/11/14 10:15:47;;;;;;;116.28;48.02;;;;;;;5.25;90.29;101036.87;1832947;77;25633;-66
2021/11/14 10:18:14;;;;;;;118.95;48.55;;;;;;;5.26;90.10;101033.66;1834084;78;26194;-67
2021/11/14 10:20:43;;;;;;;123.60;52.40;;;;;;;5.23;90.19;101030.42;1834492;78;25622;-68
2021/11/14 10:23:16;;;;;;;125.82;51.42;;;;;;;5.25;90.19;101035.53;1685799;84;27346;-68
2021/11/14 10:25:50;;;;;;;117.25;50.10;;;;;;;5.26;90.12;101036.33;1753410;81;25712;-67
2021/11/14 10:28:17;;;;;;;123.33;50.17;;;;;;;5.26;90.07;101037.67;1754006;81;25671;-67
2021/11/14 10:30:49;;;;;;;113.25;48.75;;;;;;;5.24;90.14;101036.08;1753778;81;25841;-69
2021/11/14 10:33:19;;;;;;;112.97;48.98;;;;;;;5.26;90.00;101040.36;1712768;83;25726;-69
2021/11/14 10:35:49;;;;;;;117.57;50.67;;;;;;;5.23;89.80;101041.69;1716839;83;27898;-68
2021/11/14 10:38:24;;;;;;;107.22;47.75;;;;;;;5.22;89.74;101046.22;1716416;83;25801;-68
2021/11/14 10:41:04;;;;;;;118.02;50.90;;;;;;;5.20;89.82;101044.88;1716320;83;25797;-67
2021/11/14 10:43:37;;;;;;;118.90;51.45;;;;;;;5.20;89.94;101048.36;1716421;83;26837;-67
2021/11/14 10:46:00;;;;;;;118.93;50.78;;;;;;;5.18;89.99;101053.17;1716435;83;25769;-67
2021/11/14 10:48:31;;;;;;;115.42;49.65;;;;;;;5.17;90.09;101044.84;1716315;83;27321;-67
2021/11/14 10:51:04;;;;;;;118.85;51.00;;;;;;;5.16;89.98;101041.06;1716360;83;25757;-68
2021/11/14 10:53:33;;;;;;;126.92;52.88;;;;;;;5.19;90.14;101041.91;1716185;83;25836;-68
2021/11/14 10:56:11;;;;;;;137.47;59.33;;;;;;;5.19;90.12;101044.59;1716472;83;25794;-68
2021/11/14 10:58:41;;;;;;;120.65;52.03;;;;;;;5.18;90.21;101041.64;1693322;84;26136;-68
2021/11/14 11:01:12;;;;;;;128.23;53.40;;;;;;;5.17;90.07;101046.18;1694209;84;28113;-66
2021/11/14 11:03:49;;;;;;;125.55;53.63;;;;;;;5.16;90.32;101039.22;1694392;84;25841;-67
2021/11/14 11:06:30;;;;;;;127.30;51.83;;;;;;;5.20;90.35;101046.22;1694502;84;26068;-67
2021/11/14 11:09:02;;;;;;;121.87;51.42;;;;;;;5.21;90.38;101043.80;1694067;84;25634;-68
2021/11/14 11:11:30;;;;;;;133.00;52.15;;;;;;;5.17;89.90;101048.86;1691546;84;25435;-69
2021/11/14 11:13:57;;;;;;;130.43;54.88;;;;;;;5.15;89.80;101049.66;1679769;85;27327;-68